Airfield :
LOGIN :

Register | Disclaimer

   EN    FR    IT 

 










Legend :    VFR   Marginal VFR   IFR   Intensive IFR   Very Intensive IFR
Visi :
Ceiling :
>= 8 km
>= 3000ft
5 to 8 km
1000 to 3000 ft
1500m to 5 km
500 to 1000 ft
800 to 1500m
200 to 500 ft
< 800m
< 200 ft
Symbols :   Thunderstorms  Fog  Heavy snow  Heavy precipitations  Wind > 20 kt
SIGMETs :     Misc.  Thunderstorms  Icing  Turbulence  Mountain Waves  Volcanic Ashes







- Airport Elevation : 5600 ft
- IATA code : SMV


LSZS - Samedan

CURRENT METAR :
  • 211450Z 22016KT CAVOK 13/06 Q1023 RMK S

EXPIRED METARs :
  • 211420Z 22021KT CAVOK 13/05 Q1024 RMK R
  • 211350Z 21019KT CAVOK 13/04 Q1024 RMK Q
  • 211320Z 21021KT CAVOK 13/05 Q1024 RMK P
  • 211250Z 21018KT CAVOK 14/03 Q1024 RMK O
  • 211220Z 21014KT CAVOK 14/02 Q1024 RMK N
  • 211150Z 20012KT CAVOK 14/02 Q1024 RMK M

TAF TAF LSZS
Valid from the 21 at 15:00 until the 22 at 00:00 UTC


211425Z 2115/2124 21019KT CAVOK TX16/2115Z
TEMPO 2115/2119 21020G30KT
PROB30
TEMPO 2115/2118 9999 FEW045
BECMG 2117/2120 VRB03KT
ATIS : +41 81 834 93 24
No reported NOTAMs for that airfield.



MET'MAP, your aeronautical weather chart ! - Copyright ORBIFLY December 2007 - Disclaimer

ORBIFLY MET'MAP TEAM :

Programming & Development : Alexandra Zaïnal
Concept & Development : Baudouin d'Aumeries
Co-Development & Prog : Marc-Olivier Méhu
Technical & hardware support : Manuel Goepfert

Contact : metmap@orbifly.com




SOURCES & CREDITS :

   NOAA